createdAt,value
2017-11-09T00:00:56.204Z,1017.18
2017-11-09T00:01:56.203Z,1017.16
2017-11-09T00:02:56.191Z,1017.18
2017-11-09T00:03:56.190Z,1017.17
2017-11-09T00:04:56.182Z,1017.15
2017-11-09T00:05:56.174Z,1017.18
2017-11-09T00:06:56.171Z,1017.16
2017-11-09T00:07:56.164Z,1017.16
2017-11-09T00:08:56.158Z,1017.19
2017-11-09T00:09:56.151Z,1017.16
2017-11-09T00:10:56.142Z,1017.17
2017-11-09T00:11:56.139Z,1017.18
2017-11-09T00:12:56.131Z,1017.14
2017-11-09T00:13:56.124Z,1017.20
2017-11-09T00:14:56.117Z,1017.20
2017-11-09T00:15:56.113Z,1017.17
2017-11-09T00:16:56.109Z,1017.23
2017-11-09T00:17:56.099Z,1017.27
2017-11-09T00:18:56.099Z,1017.22
2017-11-09T00:19:56.093Z,1017.23
2017-11-09T00:20:56.089Z,1017.23
2017-11-09T00:21:56.082Z,1017.21
2017-11-09T00:22:56.080Z,1017.22
2017-11-09T00:23:56.070Z,1017.21
2017-11-09T00:24:56.066Z,1017.22
2017-11-09T00:25:56.058Z,1017.24
2017-11-09T00:26:56.049Z,1017.23
2017-11-09T00:27:56.042Z,1017.26
2017-11-09T00:28:56.040Z,1017.28
2017-11-09T00:29:56.080Z,1017.27
2017-11-09T00:30:56.025Z,1017.27
2017-11-09T00:31:56.028Z,1017.29
2017-11-09T00:32:56.013Z,1017.26
2017-11-09T00:33:56.007Z,1017.28
2017-11-09T00:34:56.005Z,1017.29
2017-11-09T00:35:56.000Z,1017.29
2017-11-09T00:36:55.996Z,1017.29
2017-11-09T00:37:55.987Z,1017.27
2017-11-09T00:38:55.983Z,1017.26
2017-11-09T00:39:55.978Z,1017.33
2017-11-09T00:40:55.973Z,1017.32
2017-11-09T00:41:55.965Z,1017.31
2017-11-09T00:42:55.955Z,1017.30
2017-11-09T00:43:55.950Z,1017.31
2017-11-09T00:44:55.951Z,1017.32
2017-11-09T00:45:55.937Z,1017.32
2017-11-09T00:46:55.933Z,1017.35
2017-11-09T00:47:55.925Z,1017.31
2017-11-09T00:48:55.921Z,1017.38
2017-11-09T00:49:55.914Z,1017.35
2017-11-09T00:50:55.917Z,1017.35
2017-11-09T00:51:55.906Z,1017.34
2017-11-09T00:52:55.903Z,1017.36
2017-11-09T00:53:55.896Z,1017.37
2017-11-09T00:54:55.890Z,1017.43
2017-11-09T00:55:55.885Z,1017.42
2017-11-09T00:56:55.878Z,1017.42
2017-11-09T00:57:55.872Z,1017.46
2017-11-09T00:58:55.862Z,1017.49
2017-11-09T00:59:55.857Z,1017.50
2017-11-09T01:00:55.852Z,1017.47
2017-11-09T01:01:55.845Z,1017.46
2017-11-09T01:02:55.843Z,1017.57
2017-11-09T01:03:55.838Z,1017.53
2017-11-09T01:04:55.841Z,1017.46
2017-11-09T01:05:55.826Z,1017.49
2017-11-09T01:06:55.817Z,1017.51
2017-11-09T01:07:55.810Z,1017.45
2017-11-09T01:08:55.806Z,1017.48
2017-11-09T01:09:55.798Z,1017.44
2017-11-09T01:10:55.792Z,1017.46
2017-11-09T01:11:55.788Z,1017.52
2017-11-09T01:12:55.782Z,1017.44
2017-11-09T01:13:55.774Z,1017.49
2017-11-09T01:14:55.773Z,1017.49
2017-11-09T01:15:55.769Z,1017.50
2017-11-09T01:16:55.812Z,1017.47
2017-11-09T01:17:55.754Z,1017.47
2017-11-09T01:18:55.750Z,1017.47
2017-11-09T01:19:55.744Z,1017.45
2017-11-09T01:20:55.739Z,1017.43
2017-11-09T01:21:55.734Z,1017.44
2017-11-09T01:22:55.728Z,1017.43
2017-11-09T01:23:55.717Z,1017.41
2017-11-09T01:24:55.711Z,1017.46
2017-11-09T01:25:55.705Z,1017.42
2017-11-09T01:26:55.701Z,1017.41
2017-11-09T01:27:55.693Z,1017.35
2017-11-09T01:28:55.694Z,1017.36
2017-11-09T01:29:55.682Z,1017.41
2017-11-09T01:30:55.680Z,1017.37
2017-11-09T01:31:55.692Z,1017.40
2017-11-09T01:32:55.669Z,1017.30
2017-11-09T01:33:55.662Z,1017.41
2017-11-09T01:34:55.656Z,1017.40
2017-11-09T01:35:55.651Z,1017.41
2017-11-09T01:36:55.645Z,1017.40
2017-11-09T01:37:55.639Z,1017.44
2017-11-09T01:38:55.629Z,1017.51
2017-11-09T01:39:55.623Z,1017.54
2017-11-09T01:40:55.618Z,1017.56
2017-11-09T01:41:55.611Z,1017.55
2017-11-09T01:42:55.604Z,1017.61
2017-11-09T01:43:55.600Z,1017.60
2017-11-09T01:44:55.595Z,1017.59
2017-11-09T01:45:55.588Z,1017.57
2017-11-09T01:46:55.586Z,1017.59
2017-11-09T01:47:55.580Z,1017.60
2017-11-09T01:48:55.573Z,1017.56
2017-11-09T01:49:55.568Z,1017.59
2017-11-09T01:50:55.563Z,1017.60
2017-11-09T01:51:55.556Z,1017.60
2017-11-09T01:52:55.555Z,1017.62
2017-11-09T01:53:55.547Z,1017.71
2017-11-09T01:54:55.536Z,1017.61
2017-11-09T01:55:55.529Z,1017.65
2017-11-09T01:56:55.524Z,1017.62
2017-11-09T01:57:55.518Z,1017.71
2017-11-09T01:58:55.512Z,1017.71
2017-11-09T01:59:55.506Z,1017.73
2017-11-09T02:00:55.503Z,1017.73
2017-11-09T02:01:55.493Z,1017.75
2017-11-09T02:02:55.491Z,1017.71
2017-11-09T02:03:55.487Z,1017.72
2017-11-09T02:04:55.484Z,1017.69
2017-11-09T02:05:55.473Z,1017.67
2017-11-09T02:06:55.466Z,1017.67
2017-11-09T02:07:55.459Z,1017.68
2017-11-09T02:08:55.453Z,1017.69
2017-11-09T02:09:55.445Z,1017.66
2017-11-09T02:10:55.444Z,1017.71
2017-11-09T02:11:55.439Z,1017.74
2017-11-09T02:12:55.433Z,1017.69
2017-11-09T02:13:55.428Z,1017.71
2017-11-09T02:14:55.422Z,1017.72
2017-11-09T02:15:55.416Z,1017.73
2017-11-09T02:16:55.410Z,1017.73
2017-11-09T02:17:55.403Z,1017.71
2017-11-09T02:18:55.396Z,1017.74
2017-11-09T02:19:55.388Z,1017.69
2017-11-09T02:20:55.383Z,1017.73
2017-11-09T02:21:55.375Z,1017.73
2017-11-09T02:22:55.370Z,1017.75
2017-11-09T02:23:55.364Z,1017.75
2017-11-09T02:24:55.365Z,1017.74
2017-11-09T02:25:55.354Z,1017.73
2017-11-09T02:26:55.350Z,1017.80
2017-11-09T02:27:55.345Z,1017.82
2017-11-09T02:28:55.339Z,1017.82
2017-11-09T02:29:55.341Z,1017.76
2017-11-09T02:30:55.328Z,1017.80
2017-11-09T02:31:55.320Z,1017.81
2017-11-09T02:32:55.317Z,1017.85
2017-11-09T02:33:55.308Z,1017.85
2017-11-09T02:34:55.299Z,1017.82
2017-11-09T02:35:55.292Z,1017.80
2017-11-09T02:36:55.288Z,1017.85
2017-11-09T02:37:55.281Z,1017.85
2017-11-09T02:38:55.277Z,1017.87
2017-11-09T02:39:55.270Z,1017.90
2017-11-09T02:40:55.265Z,1017.93
2017-11-09T02:41:55.258Z,1017.92
2017-11-09T02:42:55.258Z,1017.94
2017-11-09T02:43:55.251Z,1017.93
2017-11-09T02:44:55.244Z,1017.92
2017-11-09T02:45:55.238Z,1017.96
2017-11-09T02:46:55.233Z,1017.90
2017-11-09T02:47:55.232Z,1017.90
2017-11-09T02:48:55.223Z,1017.91
2017-11-09T02:49:55.214Z,1017.87
2017-11-09T02:50:55.204Z,1017.81
2017-11-09T02:51:55.199Z,1017.83
2017-11-09T02:52:55.194Z,1017.83
2017-11-09T02:53:55.188Z,1017.83
2017-11-09T02:54:55.181Z,1017.82
2017-11-09T02:55:55.178Z,1017.86
2017-11-09T02:56:55.169Z,1017.86
2017-11-09T02:57:55.164Z,1017.90
2017-11-09T02:58:55.173Z,1017.85
2017-11-09T02:59:55.156Z,1017.92
2017-11-09T03:00:55.151Z,1017.91
2017-11-09T03:01:55.143Z,1017.91
2017-11-09T03:02:55.136Z,1017.96
2017-11-09T03:03:55.132Z,1017.94
2017-11-09T03:04:55.126Z,1017.95
2017-11-09T03:05:55.120Z,1017.91
2017-11-09T03:06:55.113Z,1017.94
2017-11-09T03:07:55.103Z,1017.93
2017-11-09T03:08:55.098Z,1017.90
2017-11-09T03:09:55.090Z,1017.90
2017-11-09T03:10:55.090Z,1017.90
2017-11-09T03:11:55.085Z,1017.87
2017-11-09T03:12:55.078Z,1017.86
2017-11-09T03:13:55.072Z,1017.91
2017-11-09T03:14:55.064Z,1017.92
2017-11-09T03:15:55.057Z,1017.87
2017-11-09T03:16:55.050Z,1017.90
2017-11-09T03:17:55.043Z,1017.95
2017-11-09T03:18:55.039Z,1017.94
2017-11-09T03:19:55.033Z,1017.93
2017-11-09T03:20:55.032Z,1017.93
2017-11-09T03:21:55.022Z,1017.92
2017-11-09T03:22:55.021Z,1017.93
2017-11-09T03:23:55.014Z,1017.96
2017-11-09T03:24:55.008Z,1017.99
2017-11-09T03:25:55.000Z,1017.99
2017-11-09T03:26:54.996Z,1018.02
2017-11-09T03:27:55.000Z,1017.98
2017-11-09T03:28:54.983Z,1018.02
2017-11-09T03:29:54.977Z,1017.95
2017-11-09T03:30:54.969Z,1018.00
2017-11-09T03:31:54.962Z,1017.97
2017-11-09T03:32:54.956Z,1017.96
2017-11-09T03:33:54.953Z,1018.01
2017-11-09T03:34:54.944Z,1018.03
2017-11-09T03:35:54.938Z,1018.03
2017-11-09T03:36:54.932Z,1018.02
2017-11-09T03:37:54.926Z,1018.05
2017-11-09T03:38:54.923Z,1018.00
2017-11-09T03:39:54.918Z,1018.02
2017-11-09T03:40:54.912Z,1018.02
2017-11-09T03:41:54.906Z,1018.02
2017-11-09T03:42:54.901Z,1018.00
2017-11-09T03:43:54.893Z,1017.99
2017-11-09T03:44:54.888Z,1018.02
2017-11-09T03:45:54.881Z,1018.05
2017-11-09T03:46:54.871Z,1018.01
2017-11-09T03:47:54.866Z,1018.05
2017-11-09T03:48:54.861Z,1017.99
2017-11-09T03:49:54.854Z,1018.00
2017-11-09T03:50:54.851Z,1017.99
2017-11-09T03:51:54.841Z,1018.00
2017-11-09T03:52:54.837Z,1017.99
2017-11-09T03:53:54.830Z,1017.96
2017-11-09T03:54:54.827Z,1017.97
2017-11-09T03:55:54.822Z,1017.97
2017-11-09T03:56:54.815Z,1017.98
2017-11-09T03:57:54.809Z,1017.95
2017-11-09T03:58:54.809Z,1017.93
2017-11-09T03:59:54.802Z,1017.97
2017-11-09T04:00:54.792Z,1017.91
2017-11-09T04:01:54.786Z,1017.94
2017-11-09T04:02:54.781Z,1017.91
2017-11-09T04:03:54.772Z,1017.93
2017-11-09T04:04:54.764Z,1017.88
2017-11-09T04:05:54.757Z,1017.93
2017-11-09T04:06:54.753Z,1017.95
2017-11-09T04:07:54.747Z,1017.95
2017-11-09T04:08:54.741Z,1017.95
2017-11-09T04:09:54.733Z,1017.98
2017-11-09T04:10:54.732Z,1017.97
2017-11-09T04:11:54.726Z,1017.97
2017-11-09T04:12:54.720Z,1017.98
2017-11-09T04:13:54.713Z,1017.94
2017-11-09T04:14:54.704Z,1017.94
2017-11-09T04:15:54.698Z,1017.87
2017-11-09T04:16:54.691Z,1017.93
2017-11-09T04:17:54.684Z,1017.94
2017-11-09T04:18:54.685Z,1017.90
2017-11-09T04:19:54.678Z,1017.90
2017-11-09T04:20:54.673Z,1017.89
2017-11-09T04:21:54.665Z,1017.88
2017-11-09T04:22:54.661Z,1017.89
2017-11-09T04:23:54.661Z,1017.86
2017-11-09T04:24:54.648Z,1017.89
2017-11-09T04:25:54.642Z,1017.84
2017-11-09T04:26:54.631Z,1017.84
2017-11-09T04:27:54.629Z,1017.91
2017-11-09T04:28:54.620Z,1017.92
2017-11-09T04:29:54.614Z,1017.86
2017-11-09T04:30:54.610Z,1017.90
2017-11-09T04:31:54.603Z,1017.87
2017-11-09T04:32:54.596Z,1017.84
2017-11-09T04:33:54.589Z,1017.83
2017-11-09T04:34:54.588Z,1017.85
2017-11-09T04:35:54.583Z,1017.84
2017-11-09T04:36:54.576Z,1017.88
2017-11-09T04:37:54.569Z,1017.86
2017-11-09T04:38:54.564Z,1017.81
2017-11-09T04:39:54.557Z,1017.75
2017-11-09T04:40:54.552Z,1017.80
2017-11-09T04:41:54.549Z,1017.79
2017-11-09T04:42:54.534Z,1017.76
2017-11-09T04:43:54.530Z,1017.83
2017-11-09T04:44:54.523Z,1017.85
2017-11-09T04:45:54.518Z,1017.79
2017-11-09T04:46:54.510Z,1017.81
2017-11-09T04:47:54.509Z,1017.82
2017-11-09T04:48:54.500Z,1017.83
2017-11-09T04:49:54.494Z,1017.78
2017-11-09T04:50:54.491Z,1017.88
2017-11-09T04:51:54.485Z,1017.84
2017-11-09T04:52:54.480Z,1017.80
2017-11-09T04:53:54.473Z,1017.84
2017-11-09T04:54:54.465Z,1017.73
2017-11-09T04:55:54.464Z,1017.79
2017-11-09T04:56:54.454Z,1017.79
2017-11-09T04:57:54.447Z,1017.79
2017-11-09T04:58:54.447Z,1017.82
2017-11-09T04:59:54.432Z,1017.81
2017-11-09T05:00:54.428Z,1017.86
2017-11-09T05:01:54.418Z,1017.80
2017-11-09T05:02:54.414Z,1017.80
2017-11-09T05:03:54.409Z,1017.79
2017-11-09T05:04:54.401Z,1017.83
2017-11-09T05:05:54.395Z,1017.81
2017-11-09T05:06:54.393Z,1017.83
2017-11-09T05:07:54.388Z,1017.83
2017-11-09T05:08:54.382Z,1017.86
2017-11-09T05:09:54.374Z,1017.88
2017-11-09T05:10:54.368Z,1017.87
2017-11-09T05:11:54.364Z,1017.83
2017-11-09T05:12:54.357Z,1017.86
2017-11-09T05:13:54.351Z,1017.86
2017-11-09T05:14:54.348Z,1017.84
2017-11-09T05:15:54.335Z,1017.86
2017-11-09T05:16:54.334Z,1017.87
2017-11-09T05:17:54.321Z,1017.86
2017-11-09T05:18:54.325Z,1017.83
2017-11-09T05:19:54.316Z,1017.80
2017-11-09T05:20:54.309Z,1017.83
2017-11-09T05:21:54.306Z,1017.80
2017-11-09T05:22:54.296Z,1017.82
2017-11-09T05:23:54.291Z,1017.88
2017-11-09T05:24:54.283Z,1017.83
2017-11-09T05:25:54.274Z,1017.84
2017-11-09T05:26:54.267Z,1017.88
2017-11-09T05:27:54.264Z,1017.92
2017-11-09T05:28:54.255Z,1017.95
2017-11-09T05:29:54.249Z,1018.00
2017-11-09T05:30:54.246Z,1017.99
2017-11-09T05:31:54.240Z,1017.99
2017-11-09T05:32:54.236Z,1018.02
2017-11-09T05:33:54.228Z,1018.02
2017-11-09T05:34:54.223Z,1018.03
2017-11-09T05:35:54.216Z,1018.04
2017-11-09T05:36:54.214Z,1018.04
2017-11-09T05:37:54.202Z,1017.99
2017-11-09T05:38:54.193Z,1018.05
2017-11-09T05:39:54.188Z,1018.03
2017-11-09T05:40:54.183Z,1018.06
2017-11-09T05:41:54.175Z,1018.06
2017-11-09T05:42:54.168Z,1018.08
2017-11-09T05:43:54.164Z,1018.05
2017-11-09T05:44:54.158Z,1018.09
2017-11-09T05:45:54.151Z,1018.06
2017-11-09T05:46:54.148Z,1018.07
2017-11-09T05:47:54.149Z,1018.09
2017-11-09T05:48:54.138Z,1018.03
2017-11-09T05:49:54.131Z,1018.06
2017-11-09T05:50:54.124Z,1018.05
2017-11-09T05:51:54.119Z,1018.07
2017-11-09T05:52:54.113Z,1018.13
2017-11-09T05:53:54.106Z,1018.15
2017-11-09T05:54:54.096Z,1018.12
2017-11-09T05:55:54.091Z,1018.12
2017-11-09T05:56:54.084Z,1018.15
2017-11-09T05:57:54.078Z,1018.14
2017-11-09T05:58:54.072Z,1018.14
2017-11-09T05:59:54.065Z,1018.11
2017-11-09T06:00:54.060Z,1018.08
2017-11-09T06:01:54.055Z,1018.14
2017-11-09T06:02:54.059Z,1018.16
2017-11-09T06:03:54.045Z,1018.20
2017-11-09T06:04:54.042Z,1018.18
2017-11-09T06:05:54.036Z,1018.21
2017-11-09T06:06:54.027Z,1018.16
2017-11-09T06:07:54.022Z,1018.20
2017-11-09T06:08:54.015Z,1018.21
2017-11-09T06:09:54.011Z,1018.19
2017-11-09T06:10:53.999Z,1018.17
2017-11-09T06:11:53.992Z,1018.18
2017-11-09T06:12:53.988Z,1018.25
2017-11-09T06:13:53.981Z,1018.23
2017-11-09T06:14:53.981Z,1018.23
2017-11-09T06:15:53.969Z,1018.35
2017-11-09T06:16:53.963Z,1018.28
2017-11-09T06:17:53.955Z,1018.32
2017-11-09T06:18:53.956Z,1018.28
2017-11-09T06:19:53.949Z,1018.33
2017-11-09T06:20:53.944Z,1018.27
2017-11-09T06:21:53.936Z,1018.30
2017-11-09T06:22:53.927Z,1018.35
2017-11-09T06:23:53.919Z,1018.31
2017-11-09T06:24:53.915Z,1018.31
2017-11-09T06:25:53.908Z,1018.40
2017-11-09T06:26:53.905Z,1018.39
2017-11-09T06:27:53.901Z,1018.34
2017-11-09T06:28:53.893Z,1018.33
2017-11-09T06:29:53.891Z,1018.35
2017-11-09T06:30:53.882Z,1018.36
2017-11-09T06:31:53.875Z,1018.41
2017-11-09T06:32:53.871Z,1018.34
2017-11-09T06:33:53.863Z,1018.36
2017-11-09T06:34:53.853Z,1018.36
2017-11-09T06:35:53.847Z,1018.40
2017-11-09T06:36:53.841Z,1018.33
2017-11-09T06:37:53.835Z,1018.42
2017-11-09T06:38:53.828Z,1018.34
2017-11-09T06:39:53.824Z,1018.38
2017-11-09T06:40:53.817Z,1018.42
2017-11-09T06:41:53.811Z,1018.43
2017-11-09T06:42:53.809Z,1018.48
2017-11-09T06:43:53.804Z,1018.47
2017-11-09T06:44:53.825Z,1018.53
2017-11-09T06:45:53.789Z,1018.50
2017-11-09T06:46:53.784Z,1018.48
2017-11-09T06:47:53.799Z,1018.49
2017-11-09T06:48:53.774Z,1018.49
2017-11-09T06:49:53.766Z,1018.54
2017-11-09T06:50:53.757Z,1018.59
2017-11-09T06:51:53.750Z,1018.59
2017-11-09T06:52:53.744Z,1018.56
2017-11-09T06:53:53.737Z,1018.62
2017-11-09T06:54:53.731Z,1018.61
2017-11-09T06:55:53.727Z,1018.64
2017-11-09T06:56:53.720Z,1018.69
2017-11-09T06:57:53.714Z,1018.66
2017-11-09T06:58:53.712Z,1018.71
2017-11-09T06:59:53.707Z,1018.76
2017-11-09T07:00:53.700Z,1018.72
2017-11-09T07:01:53.694Z,1018.77
2017-11-09T07:02:53.689Z,1018.74
2017-11-09T07:03:53.683Z,1018.74
2017-11-09T07:04:53.677Z,1018.81
2017-11-09T07:05:53.668Z,1018.78
2017-11-09T07:06:53.660Z,1018.79
2017-11-09T07:07:53.655Z,1018.84
2017-11-09T07:08:53.649Z,1018.85
2017-11-09T07:09:53.641Z,1018.79
2017-11-09T07:10:53.635Z,1018.81
2017-11-09T07:11:53.630Z,1018.87
2017-11-09T07:12:53.623Z,1018.82
2017-11-09T07:13:53.616Z,1018.83
2017-11-09T07:14:53.616Z,1018.87
2017-11-09T07:15:53.613Z,1018.89
2017-11-09T07:16:53.612Z,1018.87
2017-11-09T07:17:53.599Z,1018.90
2017-11-09T07:18:53.598Z,1018.85
2017-11-09T07:19:53.585Z,1018.87
2017-11-09T07:20:53.581Z,1018.84
2017-11-09T07:21:53.573Z,1018.84
2017-11-09T07:22:53.563Z,1018.85
2017-11-09T07:23:53.558Z,1018.89
2017-11-09T07:24:53.553Z,1018.82
2017-11-09T07:25:53.546Z,1018.85
2017-11-09T07:26:53.544Z,1018.87
2017-11-09T07:27:53.538Z,1018.84
2017-11-09T07:28:53.539Z,1018.82
2017-11-09T07:29:53.525Z,1018.79
2017-11-09T07:30:53.518Z,1018.83
2017-11-09T07:31:53.511Z,1018.84
2017-11-09T07:32:53.505Z,1018.85
2017-11-09T07:33:53.498Z,1018.84
2017-11-09T07:34:53.491Z,1018.87
2017-11-09T07:35:53.487Z,1018.84
2017-11-09T07:36:53.482Z,1018.85
2017-11-09T07:37:53.480Z,1018.87
2017-11-09T07:38:53.474Z,1018.83
2017-11-09T07:39:53.465Z,1018.80
2017-11-09T07:40:53.460Z,1018.87
2017-11-09T07:41:53.462Z,1018.87
2017-11-09T07:42:53.448Z,1018.89
2017-11-09T07:43:53.443Z,1018.86
2017-11-09T07:44:53.436Z,1018.88
2017-11-09T07:45:53.429Z,1018.85
2017-11-09T07:46:53.421Z,1018.90
2017-11-09T07:47:53.414Z,1018.92
2017-11-09T07:48:53.409Z,1018.96
2017-11-09T07:49:53.402Z,1018.91
2017-11-09T07:50:53.397Z,1018.92
2017-11-09T07:51:53.392Z,1018.94
2017-11-09T07:52:53.389Z,1018.91
2017-11-09T07:53:53.379Z,1018.98
2017-11-09T07:54:53.377Z,1018.98
2017-11-09T07:55:53.375Z,1018.98
2017-11-09T07:56:53.365Z,1018.99
2017-11-09T07:57:53.361Z,1019.05
2017-11-09T07:58:53.353Z,1019.00
2017-11-09T07:59:53.357Z,1019.00
2017-11-09T08:00:53.343Z,1018.98
2017-11-09T08:01:53.340Z,1018.96
2017-11-09T08:02:53.327Z,1018.96
2017-11-09T08:03:53.322Z,1018.96
2017-11-09T08:04:53.316Z,1019.04
2017-11-09T08:05:53.308Z,1019.10
2017-11-09T08:06:53.303Z,1019.09
2017-11-09T08:07:53.300Z,1019.10
2017-11-09T08:08:53.293Z,1019.19
2017-11-09T08:09:53.288Z,1019.16
2017-11-09T08:10:53.285Z,1019.19
2017-11-09T08:11:53.283Z,1019.19
2017-11-09T08:12:53.273Z,1019.23
2017-11-09T08:13:53.267Z,1019.22
2017-11-09T08:14:53.261Z,1019.24
2017-11-09T08:15:53.256Z,1019.24
2017-11-09T08:16:53.251Z,1019.28
2017-11-09T08:17:53.244Z,1019.28
2017-11-09T08:18:53.236Z,1019.30
2017-11-09T08:19:53.229Z,1019.27
2017-11-09T08:20:53.224Z,1019.30
2017-11-09T08:21:53.221Z,1019.33
2017-11-09T08:22:53.221Z,1019.36
2017-11-09T08:23:53.211Z,1019.33
2017-11-09T08:24:53.200Z,1019.37
2017-11-09T08:25:53.194Z,1019.37
2017-11-09T08:26:53.193Z,1019.35
2017-11-09T08:27:53.188Z,1019.37
2017-11-09T08:28:53.182Z,1019.39
2017-11-09T08:29:53.179Z,1019.41
2017-11-09T08:30:53.170Z,1019.38
2017-11-09T08:31:53.168Z,1019.44
2017-11-09T08:32:53.160Z,1019.47
2017-11-09T08:33:53.153Z,1019.46
2017-11-09T08:34:53.157Z,1019.49
2017-11-09T08:35:53.140Z,1019.45
2017-11-09T08:36:53.134Z,1019.44
2017-11-09T08:37:53.126Z,1019.48
2017-11-09T08:38:53.121Z,1019.48
2017-11-09T08:39:53.116Z,1019.46
2017-11-09T08:40:53.112Z,1019.42
2017-11-09T08:41:53.105Z,1019.44
2017-11-09T08:42:53.104Z,1019.49
2017-11-09T08:43:53.185Z,1019.42
2017-11-09T08:44:53.102Z,1019.48
2017-11-09T08:45:53.088Z,1019.46
2017-11-09T08:46:53.082Z,1019.44
2017-11-09T08:47:53.077Z,1019.46
2017-11-09T08:48:53.070Z,1019.49
2017-11-09T08:49:53.065Z,1019.43
2017-11-09T08:50:53.056Z,1019.45
2017-11-09T08:51:53.057Z,1019.43
2017-11-09T08:52:53.046Z,1019.43
2017-11-09T08:53:53.042Z,1019.41
2017-11-09T08:54:53.034Z,1019.45
2017-11-09T08:55:53.033Z,1019.41
2017-11-09T08:56:53.025Z,1019.38
2017-11-09T08:57:53.019Z,1019.42
2017-11-09T08:58:53.017Z,1019.38
2017-11-09T08:59:53.012Z,1019.38
2017-11-09T09:00:53.013Z,1019.37
2017-11-09T09:01:53.001Z,1019.40
2017-11-09T09:02:52.996Z,1019.39
2017-11-09T09:03:53.000Z,1019.42
2017-11-09T09:04:52.986Z,1019.38
2017-11-09T09:05:52.981Z,1019.41
2017-11-09T09:06:52.971Z,1019.42
2017-11-09T09:07:52.966Z,1019.48
2017-11-09T09:08:52.962Z,1019.54
2017-11-09T09:09:52.955Z,1019.53
2017-11-09T09:10:52.965Z,1019.50
2017-11-09T09:11:52.947Z,1019.51
2017-11-09T09:12:52.942Z,1019.58
2017-11-09T09:13:52.936Z,1019.59
2017-11-09T09:14:52.935Z,1019.53
2017-11-09T09:15:52.930Z,1019.57
2017-11-09T09:16:52.925Z,1019.59
2017-11-09T09:17:52.925Z,1019.58
2017-11-09T09:18:52.915Z,1019.60
2017-11-09T09:19:52.939Z,1019.56
2017-11-09T09:20:52.906Z,1019.63
2017-11-09T09:21:52.902Z,1019.58
2017-11-09T09:22:52.892Z,1019.64
2017-11-09T09:23:52.887Z,1019.55
2017-11-09T09:24:52.882Z,1019.57
2017-11-09T09:25:52.878Z,1019.52
2017-11-09T09:26:52.872Z,1019.59
2017-11-09T09:27:52.870Z,1019.56
2017-11-09T09:28:52.868Z,1019.57
2017-11-09T09:29:52.859Z,1019.54
2017-11-09T09:30:52.865Z,1019.51
2017-11-09T09:31:52.855Z,1019.50
2017-11-09T09:32:52.849Z,1019.54
2017-11-09T09:33:52.844Z,1019.55
2017-11-09T09:34:52.835Z,1019.52
2017-11-09T09:35:52.831Z,1019.54
2017-11-09T09:36:52.841Z,1019.54
2017-11-09T09:37:52.823Z,1019.51
2017-11-09T09:38:52.822Z,1019.50
2017-11-09T09:39:52.823Z,1019.51
2017-11-09T09:40:52.814Z,1019.50
2017-11-09T09:41:52.809Z,1019.47
2017-11-09T09:42:52.806Z,1019.50
2017-11-09T09:43:52.802Z,1019.45
2017-11-09T09:44:52.797Z,1019.46
2017-11-09T09:45:52.791Z,1019.46
2017-11-09T09:46:52.783Z,1019.50
2017-11-09T09:47:52.783Z,1019.50
2017-11-09T09:48:52.775Z,1019.51
2017-11-09T09:49:52.773Z,1019.52
2017-11-09T09:50:52.768Z,1019.53
2017-11-09T09:51:52.771Z,1019.55
2017-11-09T09:52:52.758Z,1019.48
2017-11-09T09:53:52.754Z,1019.51
2017-11-09T09:54:52.755Z,1019.53
2017-11-09T09:55:52.752Z,1019.52
2017-11-09T09:56:52.748Z,1019.51
2017-11-09T09:57:52.742Z,1019.52
2017-11-09T09:58:52.738Z,1019.52
2017-11-09T09:59:52.734Z,1019.54
2017-11-09T10:00:52.731Z,1019.56
2017-11-09T10:01:52.728Z,1019.58
2017-11-09T10:02:52.719Z,1019.60
2017-11-09T10:03:52.715Z,1019.56
2017-11-09T10:04:52.712Z,1019.52
2017-11-09T10:05:52.709Z,1019.50
2017-11-09T10:06:52.704Z,1019.51
2017-11-09T10:07:52.702Z,1019.48
2017-11-09T10:08:52.698Z,1019.49
2017-11-09T10:09:52.695Z,1019.54
2017-11-09T10:10:52.696Z,1019.53
2017-11-09T10:11:52.697Z,1019.49
2017-11-09T10:12:52.689Z,1019.52
2017-11-09T10:13:52.689Z,1019.51
2017-11-09T10:14:52.680Z,1019.47
2017-11-09T10:15:52.678Z,1019.46
2017-11-09T10:16:52.674Z,1019.48
2017-11-09T10:17:52.668Z,1019.44
2017-11-09T10:18:52.663Z,1019.48
2017-11-09T10:19:52.658Z,1019.43
2017-11-09T10:20:52.655Z,1019.47
2017-11-09T10:21:52.651Z,1019.41
2017-11-09T10:22:52.647Z,1019.42
2017-11-09T10:23:52.644Z,1019.41
2017-11-09T10:24:52.641Z,1019.41
2017-11-09T10:25:52.639Z,1019.37
2017-11-09T10:26:52.636Z,1019.34
2017-11-09T10:27:52.635Z,1019.34
2017-11-09T10:28:52.629Z,1019.34
2017-11-09T10:29:52.626Z,1019.33
2017-11-09T10:30:52.622Z,1019.33
2017-11-09T10:31:52.619Z,1019.27
2017-11-09T10:32:52.614Z,1019.29
2017-11-09T10:33:52.616Z,1019.26
2017-11-09T10:34:52.603Z,1019.25
2017-11-09T10:35:52.599Z,1019.26
2017-11-09T10:36:52.598Z,1019.29
2017-11-09T10:37:52.595Z,1019.29
2017-11-09T10:38:52.591Z,1019.29
2017-11-09T10:39:52.588Z,1019.27
2017-11-09T10:40:52.585Z,1019.30
2017-11-09T10:41:52.594Z,1019.24
2017-11-09T10:42:52.573Z,1019.25
2017-11-09T10:43:52.569Z,1019.25
2017-11-09T10:44:52.565Z,1019.19
2017-11-09T10:45:52.560Z,1019.24
2017-11-09T10:46:52.563Z,1019.24
2017-11-09T10:47:52.551Z,1019.27
2017-11-09T10:48:52.548Z,1019.26
2017-11-09T10:49:52.545Z,1019.31
2017-11-09T10:50:52.545Z,1019.32
2017-11-09T10:51:52.541Z,1019.36
2017-11-09T10:52:52.538Z,1019.34
2017-11-09T10:53:52.534Z,1019.34
2017-11-09T10:54:52.529Z,1019.41
2017-11-09T10:55:52.524Z,1019.38
2017-11-09T10:56:52.522Z,1019.36
2017-11-09T10:57:52.515Z,1019.39
2017-11-09T10:58:52.509Z,1019.37
2017-11-09T10:59:52.505Z,1019.35
2017-11-09T11:00:52.500Z,1019.33
2017-11-09T11:01:52.499Z,1019.39
2017-11-09T11:02:52.513Z,1019.39
2017-11-09T11:03:52.487Z,1019.36
2017-11-09T11:04:52.488Z,1019.39
2017-11-09T11:05:52.480Z,1019.42
2017-11-09T11:06:52.480Z,1019.40
2017-11-09T11:07:52.477Z,1019.37
2017-11-09T11:08:52.472Z,1019.38
2017-11-09T11:09:52.468Z,1019.28
2017-11-09T11:10:52.474Z,1019.31
2017-11-09T11:11:52.465Z,1019.32
2017-11-09T11:12:52.458Z,1019.27
2017-11-09T11:13:52.453Z,1019.29
2017-11-09T11:14:52.452Z,1019.27
2017-11-09T11:15:52.440Z,1019.20
2017-11-09T11:16:52.437Z,1019.25
2017-11-09T11:17:52.432Z,1019.20
2017-11-09T11:18:52.429Z,1019.20
2017-11-09T11:19:52.424Z,1019.23
2017-11-09T11:20:52.421Z,1019.20
2017-11-09T11:21:52.415Z,1019.18
2017-11-09T11:22:52.416Z,1019.11
2017-11-09T11:23:52.412Z,1019.14
2017-11-09T11:24:52.407Z,1019.16
2017-11-09T11:25:52.406Z,1019.13
2017-11-09T11:26:52.398Z,1019.12
2017-11-09T11:27:52.394Z,1019.08
2017-11-09T11:28:52.391Z,1019.06
2017-11-09T11:29:52.385Z,1019.10
2017-11-09T11:30:52.376Z,1019.10
2017-11-09T11:31:52.373Z,1019.10
2017-11-09T11:32:52.368Z,1019.10
2017-11-09T11:33:52.364Z,1019.13
2017-11-09T11:34:52.360Z,1019.08
2017-11-09T11:35:52.356Z,1019.10
2017-11-09T11:36:52.352Z,1019.04
2017-11-09T11:37:52.347Z,1019.05
2017-11-09T11:38:52.347Z,1019.04
2017-11-09T11:39:52.343Z,1018.99
2017-11-09T11:40:52.340Z,1018.96
2017-11-09T11:41:52.335Z,1018.98
2017-11-09T11:42:52.326Z,1019.00
2017-11-09T11:43:52.322Z,1018.97
2017-11-09T11:44:52.322Z,1018.96
2017-11-09T11:45:52.313Z,1019.05
2017-11-09T11:46:52.314Z,1019.03
2017-11-09T11:47:52.309Z,1019.03
2017-11-09T11:48:52.320Z,1019.05
2017-11-09T11:49:52.305Z,1018.94
2017-11-09T11:50:52.299Z,1018.87
2017-11-09T11:51:52.293Z,1018.85
2017-11-09T11:52:52.290Z,1018.83
2017-11-09T11:53:52.285Z,1018.89
2017-11-09T11:54:52.280Z,1018.93
2017-11-09T11:55:52.277Z,1018.98
2017-11-09T11:56:52.273Z,1018.95
2017-11-09T11:57:52.271Z,1018.95
2017-11-09T11:58:52.265Z,1018.93
2017-11-09T11:59:52.260Z,1019.07
2017-11-09T12:00:52.257Z,1019.06
2017-11-09T12:01:52.252Z,1019.05
2017-11-09T12:02:52.254Z,1019.07
2017-11-09T12:03:52.252Z,1019.09
2017-11-09T12:04:52.252Z,1019.01
2017-11-09T12:05:52.245Z,1018.93